createdAt,value
2024-04-11T00:00:53.057Z,88.1
2024-04-11T00:03:53.303Z,88.2
2024-04-11T00:06:53.076Z,88.3
2024-04-11T00:09:53.064Z,88.4
2024-04-11T00:12:53.095Z,88.4
2024-04-11T00:15:53.095Z,88.1
2024-04-11T00:18:53.078Z,88.1
2024-04-11T00:21:53.068Z,88.1
2024-04-11T00:24:53.164Z,88.3
2024-04-11T00:27:53.077Z,88.3
2024-04-11T00:30:53.073Z,88.6
2024-04-11T00:33:53.174Z,88.9
2024-04-11T00:36:53.074Z,89.1
2024-04-11T00:39:53.069Z,89.3
2024-04-11T00:42:53.131Z,89.5
2024-04-11T00:45:53.077Z,89.7
2024-04-11T00:48:53.127Z,90.1
2024-04-11T00:51:53.090Z,90.3
2024-04-11T00:54:53.094Z,90.4
2024-04-11T00:57:53.173Z,90.4
2024-04-11T01:00:53.123Z,90.5
2024-04-11T01:03:53.267Z,90.5
2024-04-11T01:06:53.087Z,90.5
2024-04-11T01:09:53.172Z,90.5
2024-04-11T01:12:53.099Z,90.6
2024-04-11T01:15:53.101Z,90.6
2024-04-11T01:18:53.143Z,90.8
2024-04-11T01:21:53.097Z,90.9
2024-04-11T01:24:53.105Z,91.1
2024-04-11T01:27:53.188Z,91.4
2024-04-11T01:30:53.107Z,91.6
2024-04-11T01:33:53.199Z,91.6
2024-04-11T01:36:53.139Z,91.6
2024-04-11T01:39:53.113Z,91.5
2024-04-11T01:42:53.186Z,91.3
2024-04-11T01:45:53.253Z,91.3
2024-04-11T01:48:53.205Z,91.3
2024-04-11T01:51:53.140Z,91.1
2024-04-11T01:54:53.133Z,91.1
2024-04-11T01:57:53.134Z,91.3
2024-04-11T02:00:53.146Z,91.2
2024-04-11T02:03:53.279Z,91.1
2024-04-11T02:06:53.137Z,91
2024-04-11T02:09:53.153Z,90.8
2024-04-11T02:12:53.145Z,90.6
2024-04-11T02:15:53.148Z,90.6
2024-04-11T02:18:53.209Z,90.4
2024-04-11T02:21:54.821Z,90.3
2024-04-11T02:24:53.154Z,90.2
2024-04-11T02:27:53.158Z,90.3
2024-04-11T02:30:53.161Z,90.4
2024-04-11T02:33:53.241Z,90.3
2024-04-11T02:36:53.174Z,90.2
2024-04-11T02:39:53.167Z,90
2024-04-11T02:42:53.175Z,89.8
2024-04-11T02:45:53.185Z,89.5
2024-04-11T02:48:53.224Z,89.4
2024-04-11T02:51:53.196Z,89.3
2024-04-11T02:54:53.179Z,89.3
2024-04-11T02:57:53.216Z,89.3
2024-04-11T03:00:53.218Z,89.2
2024-04-11T03:03:53.447Z,88.9
2024-04-11T03:06:53.194Z,88.7
2024-04-11T03:09:53.197Z,88.6
2024-04-11T03:12:53.275Z,88.6
2024-04-11T03:15:53.215Z,88.3
2024-04-11T03:18:53.235Z,88.1
2024-04-11T03:21:53.203Z,87.9
2024-04-11T03:24:53.207Z,87.8
2024-04-11T03:27:53.217Z,87.6
2024-04-11T03:30:53.221Z,87.5
2024-04-11T03:33:53.541Z,87.4
2024-04-11T03:36:53.216Z,86.8
2024-04-11T03:39:53.228Z,86.3
2024-04-11T03:42:53.260Z,85.9
2024-04-11T03:45:53.228Z,85.7
2024-04-11T03:48:53.279Z,85.5
2024-04-11T03:51:53.242Z,85.4
2024-04-11T03:54:53.253Z,85.2
2024-04-11T03:57:53.233Z,85
2024-04-11T04:00:53.253Z,84.9
2024-04-11T04:03:53.533Z,84.9
2024-04-11T04:06:53.234Z,84.8
2024-04-11T04:09:53.238Z,84.7
2024-04-11T04:12:53.246Z,84.7
2024-04-11T04:15:53.296Z,84.8
2024-04-11T04:18:53.303Z,84.7
2024-04-11T04:21:53.292Z,84.7
2024-04-11T04:24:53.266Z,84.6
2024-04-11T04:27:53.265Z,84.7
2024-04-11T04:30:53.944Z,84.7
2024-04-11T04:33:53.376Z,84.7
2024-04-11T04:36:53.281Z,84.8
2024-04-11T04:39:53.287Z,84.8
2024-04-11T04:42:53.289Z,84.8
2024-04-11T04:45:53.271Z,84.7
2024-04-11T04:48:53.457Z,84.3
2024-04-11T04:51:53.289Z,83.9
2024-04-11T04:54:53.294Z,83.5
2024-04-11T04:57:53.299Z,83.1
2024-04-11T05:00:53.325Z,82.5
2024-04-11T05:03:53.503Z,81.9
2024-04-11T05:06:53.299Z,81.5
2024-04-11T05:09:53.305Z,81
2024-04-11T05:12:53.310Z,80.6
2024-04-11T05:15:53.333Z,80.3
2024-04-11T05:18:53.608Z,79.8
2024-04-11T05:21:53.334Z,79.5
2024-04-11T05:24:53.323Z,79
2024-04-11T05:27:53.316Z,78.5
2024-04-11T05:30:53.340Z,78.1
2024-04-11T05:33:53.436Z,77.3
2024-04-11T05:36:53.341Z,76.8
2024-04-11T05:39:53.351Z,76.6
2024-04-11T05:42:53.350Z,75.8
2024-04-11T05:45:53.351Z,74.6
2024-04-11T05:48:53.404Z,73.6
2024-04-11T05:51:53.359Z,72.3
2024-04-11T05:54:53.365Z,71.4
2024-04-11T05:57:53.367Z,70.2
2024-04-11T06:00:53.374Z,68.7
2024-04-11T06:03:53.391Z,67.9
2024-04-11T06:06:53.394Z,67
2024-04-11T06:09:53.398Z,65.3
2024-04-11T06:12:53.409Z,64.5
2024-04-11T06:15:53.424Z,63.6
2024-04-11T06:18:53.438Z,63.7
2024-04-11T06:21:53.417Z,64
2024-04-11T06:24:53.410Z,63.2
2024-04-11T06:27:53.431Z,62.8
2024-04-11T06:30:53.438Z,63
2024-04-11T06:33:53.554Z,62.4
2024-04-11T06:36:53.433Z,62.4
2024-04-11T06:39:53.444Z,61.4
2024-04-11T06:42:53.424Z,60.9
2024-04-11T06:45:53.444Z,60.4
2024-04-11T06:48:53.519Z,59.4
2024-04-11T06:51:53.456Z,59.4
2024-04-11T06:54:53.457Z,58.7
2024-04-11T06:57:53.491Z,58.2
2024-04-11T07:00:53.481Z,58
2024-04-11T07:03:53.582Z,57.7
2024-04-11T07:06:53.475Z,57.2
2024-04-11T07:09:53.493Z,57.2
2024-04-11T07:12:53.482Z,56.8
2024-04-11T07:15:53.486Z,56.7
2024-04-11T07:18:54.670Z,56.9
2024-04-11T07:21:53.494Z,57
2024-04-11T07:24:53.488Z,56.8
2024-04-11T07:27:53.512Z,57
2024-04-11T07:30:53.503Z,56.8
2024-04-11T07:33:53.553Z,56.7
2024-04-11T07:36:53.519Z,56.8
2024-04-11T07:39:53.527Z,56.7
2024-04-11T07:42:53.530Z,56.6
2024-04-11T07:45:53.538Z,56.1
2024-04-11T07:48:53.704Z,56.2
2024-04-11T07:51:53.517Z,56
2024-04-11T07:54:53.533Z,56.2
2024-04-11T07:57:53.533Z,55.2
2024-04-11T08:00:53.637Z,54.4
2024-04-11T08:03:53.625Z,54
2024-04-11T08:06:53.648Z,54.2
2024-04-11T08:09:53.625Z,53.7
2024-04-11T08:12:53.622Z,54
2024-04-11T08:15:53.540Z,53.5
2024-04-11T08:21:53.535Z,54.2
2024-04-11T08:24:53.532Z,54.1
2024-04-11T08:27:53.542Z,53.9
2024-04-11T08:30:53.548Z,54.3
2024-04-11T08:33:53.589Z,53.9
2024-04-11T08:36:53.545Z,53.5
2024-04-11T08:39:53.599Z,53.8
2024-04-11T08:42:53.531Z,53.9
2024-04-11T08:45:53.547Z,54
2024-04-11T08:48:53.666Z,54.1
2024-04-11T08:51:53.554Z,54.5
2024-04-11T08:54:53.564Z,54.2
2024-04-11T08:57:53.597Z,54.2
2024-04-11T09:00:53.570Z,54.6
2024-04-11T09:03:53.581Z,54.7
2024-04-11T09:06:53.561Z,55.1
2024-04-11T09:09:53.624Z,55.4
2024-04-11T09:12:53.737Z,55.4
2024-04-11T09:15:53.616Z,55.3
2024-04-11T09:18:53.598Z,55.3
2024-04-11T09:21:53.586Z,55.6
2024-04-11T09:24:53.587Z,55.3
2024-04-11T09:27:53.575Z,55.4
2024-04-11T09:30:53.578Z,55.5
2024-04-11T09:33:53.713Z,55.8
2024-04-11T09:36:53.603Z,55.9
2024-04-11T09:39:53.588Z,55.5
2024-04-11T09:42:53.594Z,55.4
2024-04-11T09:45:53.591Z,55.8
2024-04-11T09:48:53.685Z,55.5
2024-04-11T09:51:53.602Z,55.6
2024-04-11T09:54:53.610Z,55.6
2024-04-11T09:57:53.603Z,56.1
2024-04-11T10:00:53.631Z,55.8
2024-04-11T10:03:53.616Z,55.7
2024-04-11T10:06:53.611Z,55.4
2024-04-11T10:09:53.599Z,55.4
2024-04-11T10:12:53.693Z,55.4
2024-04-11T10:15:53.608Z,55
2024-04-11T10:18:54.367Z,55.4
2024-04-11T10:21:54.359Z,54.9
2024-04-11T10:24:53.620Z,55
2024-04-11T10:27:53.605Z,54.3
2024-04-11T10:30:53.617Z,55.2
2024-04-11T10:33:53.753Z,56.4
2024-04-11T10:36:53.624Z,57.4
2024-04-11T10:39:53.613Z,58.7
2024-04-11T10:42:59.732Z,59.8
2024-04-11T10:45:53.648Z,57.4
2024-04-11T10:48:53.691Z,57.2
2024-04-11T10:51:53.627Z,56.6
2024-04-11T10:54:53.619Z,55.6
2024-04-11T10:57:53.625Z,55.3
2024-04-11T11:00:53.630Z,54.2
2024-04-11T11:03:53.720Z,55
2024-04-11T11:06:53.635Z,55
2024-04-11T11:09:53.629Z,54.8
2024-04-11T11:12:53.645Z,54.7
2024-04-11T11:15:53.642Z,54.9
2024-04-11T11:18:53.644Z,54.7
2024-04-11T11:21:53.661Z,54.4
2024-04-11T11:24:53.645Z,54.9
2024-04-11T11:27:53.684Z,55.3
2024-04-11T11:30:53.647Z,55.2
2024-04-11T11:33:53.760Z,55.7
2024-04-11T11:36:53.662Z,55.2
2024-04-11T11:39:53.642Z,56.1
2024-04-11T11:42:53.811Z,56.6
2024-04-11T11:45:53.662Z,56.8
2024-04-11T11:48:53.709Z,57.1
2024-04-11T11:51:53.676Z,57.5
2024-04-11T11:54:53.659Z,57.7
2024-04-11T11:57:53.663Z,57.6
2024-04-11T12:00:53.678Z,57.8
2024-04-11T12:03:53.743Z,58.3
2024-04-11T12:06:53.680Z,57.8
2024-04-11T12:09:53.675Z,58.2
2024-04-11T12:12:56.351Z,58.5
2024-04-11T12:15:53.688Z,58.2
2024-04-11T12:18:53.683Z,58.4
2024-04-11T12:21:53.698Z,58.2
2024-04-11T12:24:53.677Z,57.5
2024-04-11T12:27:53.675Z,57.7
2024-04-11T12:30:56.873Z,57.7
2024-04-11T12:33:53.790Z,57.3
2024-04-11T12:36:53.703Z,57.6
2024-04-11T12:39:53.796Z,57.8
2024-04-11T12:42:53.692Z,58
2024-04-11T12:45:53.747Z,58.1
2024-04-11T12:48:53.793Z,58.3
2024-04-11T12:51:53.720Z,58.5
2024-04-11T12:54:53.706Z,58.3
2024-04-11T12:57:53.720Z,58.4
2024-04-11T13:00:53.727Z,58
2024-04-11T13:03:53.707Z,57.9
2024-04-11T13:06:53.853Z,58.2
2024-04-11T13:09:53.706Z,58.9
2024-04-11T13:12:53.919Z,57.3
2024-04-11T13:15:53.736Z,57.2
2024-04-11T13:18:53.818Z,57.8
2024-04-11T13:21:53.733Z,57.6
2024-04-11T13:24:55.159Z,58.5
2024-04-11T13:27:54.059Z,59.1
2024-04-11T13:30:53.733Z,60
2024-04-11T13:33:53.829Z,60.9
2024-04-11T13:36:53.762Z,60.5
2024-04-11T13:39:53.734Z,60.4
2024-04-11T13:42:53.735Z,60.6
2024-04-11T13:45:53.736Z,61
2024-04-11T13:48:54.049Z,60.1
2024-04-11T13:51:53.754Z,59.6
2024-04-11T13:54:53.774Z,59.4
2024-04-11T13:57:53.769Z,59.5
2024-04-11T14:00:53.771Z,60
2024-04-11T14:03:53.847Z,60.3
2024-04-11T14:06:53.777Z,61.1
2024-04-11T14:09:53.757Z,61.8
2024-04-11T14:12:53.780Z,61.7
2024-04-11T14:15:53.887Z,61.5
2024-04-11T14:18:53.784Z,61.1
2024-04-11T14:21:53.802Z,60.9
2024-04-11T14:24:53.774Z,61.1
2024-04-11T14:27:53.793Z,60.7
2024-04-11T14:30:53.817Z,60.9
2024-04-11T14:33:53.813Z,61.2
2024-04-11T14:36:53.794Z,60.8
2024-04-11T14:39:53.789Z,61.3
2024-04-11T14:42:53.799Z,61.1
2024-04-11T14:45:53.796Z,61.3
2024-04-11T14:48:53.814Z,61.6
2024-04-11T14:51:53.820Z,61.5
2024-04-11T14:54:53.808Z,61.6
2024-04-11T14:57:53.814Z,60.6
2024-04-11T15:00:53.850Z,60.9
2024-04-11T15:03:53.849Z,60.9
2024-04-11T15:06:53.841Z,60.9
2024-04-11T15:09:53.930Z,61.9
2024-04-11T15:12:53.843Z,61.8
2024-04-11T15:15:53.855Z,62
2024-04-11T15:18:53.876Z,62
2024-04-11T15:21:53.951Z,62.6
2024-04-11T15:24:54.004Z,62.9
2024-04-11T15:27:53.951Z,62.9
2024-04-11T15:30:53.847Z,63.2
2024-04-11T15:33:53.878Z,63.3
2024-04-11T15:36:54.231Z,64.2
2024-04-11T15:39:53.851Z,64.9
2024-04-11T15:42:53.855Z,65
2024-04-11T15:45:53.934Z,65
2024-04-11T15:48:54.260Z,65.1
2024-04-11T15:51:53.882Z,65.4
2024-04-11T15:54:53.869Z,65.8
2024-04-11T15:57:53.869Z,65.8
2024-04-11T16:00:54.140Z,65.6
2024-04-11T16:03:54.080Z,65.9
2024-04-11T16:06:53.886Z,65.8
2024-04-11T16:09:53.876Z,66.1
2024-04-11T16:12:53.885Z,66.3
2024-04-11T16:15:53.937Z,66.3
2024-04-11T16:18:53.971Z,66.4
2024-04-11T16:21:53.917Z,66.3
2024-04-11T16:24:53.917Z,66.2
2024-04-11T16:27:53.908Z,66.2
2024-04-11T16:30:53.909Z,66.2
2024-04-11T16:33:53.991Z,66.5
2024-04-11T16:36:53.919Z,66.8
2024-04-11T16:39:53.927Z,67.4
2024-04-11T16:42:53.918Z,67.6
2024-04-11T16:45:53.930Z,68
2024-04-11T16:48:54.048Z,68.4
2024-04-11T16:51:53.963Z,68.8
2024-04-11T16:54:53.939Z,69.2
2024-04-11T16:57:53.935Z,69.1
2024-04-11T17:00:54.002Z,69.3
2024-04-11T17:03:53.988Z,69.5
2024-04-11T17:06:53.972Z,69.7
2024-04-11T17:09:53.966Z,69.7
2024-04-11T17:12:53.962Z,70
2024-04-11T17:15:54.015Z,70.2
2024-04-11T17:18:54.433Z,70.6
2024-04-11T17:21:53.983Z,71
2024-04-11T17:24:54.020Z,71.2
2024-04-11T17:27:53.969Z,71.4
2024-04-11T17:30:53.972Z,71.6
2024-04-11T17:33:54.404Z,71.5
2024-04-11T17:36:54.130Z,71.7
2024-04-11T17:39:54.000Z,71.7
2024-04-11T17:42:54.004Z,71.7
2024-04-11T17:45:53.992Z,71.8
2024-04-11T17:48:54.017Z,71.9
2024-04-11T17:51:54.003Z,72.2
2024-04-11T17:54:54.006Z,72.5
2024-04-11T17:57:54.017Z,72.7
2024-04-11T18:00:54.203Z,72.8
2024-04-11T18:03:54.256Z,73
2024-04-11T18:06:54.032Z,73.3
2024-04-11T18:09:54.031Z,73.2
2024-04-11T18:12:54.052Z,73.5
2024-04-11T18:15:54.042Z,73.7
2024-04-11T18:18:54.042Z,73.8
2024-04-11T18:21:54.049Z,74
2024-04-11T18:24:54.132Z,74.1
2024-04-11T18:27:54.069Z,74.2
2024-04-11T18:30:54.064Z,74.4
2024-04-11T18:33:54.135Z,74.6
2024-04-11T18:36:54.083Z,74.7
2024-04-11T18:39:54.071Z,74.8
2024-04-11T18:42:54.080Z,74.8
2024-04-11T18:45:54.088Z,74.9
2024-04-11T18:48:54.213Z,75
2024-04-11T18:51:54.097Z,75.1
2024-04-11T18:54:54.100Z,75.3
2024-04-11T18:57:54.108Z,75.5
2024-04-11T19:00:54.119Z,75.8
2024-04-11T19:03:54.116Z,75.9
2024-04-11T19:06:54.133Z,76
2024-04-11T19:09:54.314Z,76.2
2024-04-11T19:12:54.143Z,76.3
2024-04-11T19:15:54.139Z,76.4
2024-04-11T19:18:54.152Z,76.4
2024-04-11T19:21:54.997Z,76.6
2024-04-11T19:24:54.392Z,76.7
2024-04-11T19:27:54.155Z,76.9
2024-04-11T19:30:54.148Z,77
2024-04-11T19:33:54.189Z,77
2024-04-11T19:36:54.169Z,77.1
2024-04-11T19:39:54.180Z,77.3
2024-04-11T19:42:54.189Z,77.3
2024-04-11T19:45:54.200Z,77.5
2024-04-11T19:48:54.531Z,77.7
2024-04-11T19:51:54.203Z,77.8
2024-04-11T19:54:54.201Z,78
2024-04-11T19:57:54.213Z,78.3
2024-04-11T20:00:54.233Z,78.6
2024-04-11T20:03:54.235Z,79.1
2024-04-11T20:06:54.196Z,79.4
2024-04-11T20:09:54.201Z,79.8
2024-04-11T20:12:54.223Z,80.1
2024-04-11T20:15:54.201Z,80.6
2024-04-11T20:18:54.445Z,80.9
2024-04-11T20:21:54.206Z,81.2
2024-04-11T20:24:54.218Z,81.6
2024-04-11T20:27:54.214Z,82
2024-04-11T20:30:54.209Z,82.3
2024-04-11T20:33:54.326Z,82.5
2024-04-11T20:36:54.941Z,82.9
2024-04-11T20:39:54.217Z,83
2024-04-11T20:42:54.236Z,83.4
2024-04-11T20:45:54.228Z,83.8
2024-04-11T20:48:54.279Z,84.2
2024-04-11T20:51:54.227Z,84.5
2024-04-11T20:54:54.228Z,84.8
2024-04-11T20:57:54.255Z,85
2024-04-11T21:00:54.271Z,85.1
2024-04-11T21:03:54.256Z,85.2
2024-04-11T21:06:54.236Z,85.1
2024-04-11T21:09:54.245Z,85.3
2024-04-11T21:12:54.280Z,85.3
2024-04-11T21:15:54.251Z,85.4
2024-04-11T21:18:54.505Z,85.3
2024-04-11T21:21:54.284Z,85
2024-04-11T21:24:54.282Z,85.3
2024-04-11T21:27:54.322Z,85.1
2024-04-11T21:30:54.294Z,85
2024-04-11T21:33:54.418Z,85.1
2024-04-11T21:36:54.299Z,84.9
2024-04-11T21:39:54.308Z,84.9
2024-04-11T21:42:54.304Z,84.8
2024-04-11T21:45:54.331Z,84.9
2024-04-11T21:48:55.448Z,84.9
2024-04-11T21:51:54.323Z,84.9
2024-04-11T21:54:54.334Z,84.9
2024-04-11T21:57:54.343Z,84.8
2024-04-11T22:00:54.394Z,84.7
2024-04-11T22:03:54.425Z,84.7
2024-04-11T22:06:54.361Z,84.8
2024-04-11T22:09:54.364Z,84.8
2024-04-11T22:12:54.387Z,84.8
2024-04-11T22:15:54.765Z,84.8
2024-04-11T22:18:54.390Z,84.9
2024-04-11T22:21:54.378Z,84.9
2024-04-11T22:24:54.393Z,84.9
2024-04-11T22:27:54.411Z,84.9
2024-04-11T22:30:54.592Z,85
2024-04-11T22:33:54.533Z,85
2024-04-11T22:36:54.399Z,84.9
2024-04-11T22:39:54.429Z,84.9
2024-04-11T22:42:54.621Z,85
2024-04-11T22:45:54.427Z,85
2024-04-11T22:48:54.508Z,85.1
2024-04-11T22:51:54.620Z,85
2024-04-11T22:54:54.453Z,85
2024-04-11T22:57:54.458Z,84.9
2024-04-11T23:00:54.471Z,84.9
2024-04-11T23:03:54.505Z,84.8
2024-04-11T23:06:54.458Z,84.8
2024-04-11T23:09:54.765Z,84.7
2024-04-11T23:12:54.506Z,84.5
2024-04-11T23:15:54.704Z,84.5
2024-04-11T23:18:54.596Z,84.3
2024-04-11T23:21:54.504Z,84.1
2024-04-11T23:24:54.503Z,84.1
2024-04-11T23:27:54.533Z,84
2024-04-11T23:30:54.512Z,83.8
2024-04-11T23:33:54.524Z,83.7
2024-04-11T23:36:54.530Z,83.8
2024-04-11T23:39:54.536Z,83.8
2024-04-11T23:42:54.558Z,83.8
2024-04-11T23:45:54.559Z,83.7
2024-04-11T23:48:54.649Z,83.5
2024-04-11T23:51:54.568Z,83.4
2024-04-11T23:54:54.604Z,83.3
2024-04-11T23:57:54.620Z,83.3
